Time;durP1;ratioP1;P1;durP2;ratioP2;P2;SDS_P1;SDS_P2;PMS_P1;PMS_P2;Temp;Humidity;BMP_temperature;BMP_pressure;BME280_temperature;BME280_humidity;BME280_pressure;Samples;Min_cycle;Max_cycle;Signal;HPM_P1;HPM_P2
2022/07/20 00:01:20;;;;;;;;;;;;;;;23.83;31.63;100662.03;5093660;28;20351;-71
2022/07/20 00:03:45;;;;;;;;;;;;;;;23.81;31.70;100654.91;5093355;28;19916;-71
2022/07/20 00:06:11;;;;;;;;;;;;;;;23.81;31.97;100654.91;5093734;28;19920;-71
2022/07/20 00:11:20;;;;;;;;;;;;;;;23.81;31.74;100665.00;5097308;28;19923;-71
2022/07/20 00:13:47;;;;;;;;;;;;;;;23.80;31.98;100674.25;5097201;28;19916;-71
2022/07/20 00:16:12;;;;;;;;;;;;;;;23.80;32.04;100674.25;5097210;28;20007;-71
2022/07/20 00:18:37;;;;;;;;;;;;;;;23.79;31.95;100672.63;5097493;28;19966;-70
2022/07/20 00:21:02;;;;;;;;;;;;;;;23.81;31.85;100670.47;5097406;28;20385;-70
2022/07/20 00:23:28;;;;;;;;;;;;;;;23.80;31.98;100680.53;5097192;28;20102;-70
2022/07/20 00:25:53;;;;;;;;;;;;;;;23.81;32.04;100686.84;5096945;28;19927;-70
2022/07/20 00:28:18;;;;;;;;;;;;;;;23.81;31.80;100692.31;5097344;28;19927;-70
2022/07/20 00:30:43;;;;;;;;;;;;;;;23.81;32.08;100697.75;5097366;28;19920;-70
2022/07/20 00:33:09;;;;;;;;;;;;;;;23.79;31.84;100695.28;5096927;28;20468;-70
2022/07/20 00:35:34;;;;;;;;;;;;;;;23.81;32.10;100703.22;5097177;28;19922;-70
2022/07/20 00:37:59;;;;;;;;;;;;;;;23.80;31.98;100707.84;5096939;28;20377;-70
2022/07/20 00:40:24;;;;;;;;;;;;;;;23.78;32.03;100699.09;5097022;28;20065;-70
2022/07/20 00:42:50;;;;;;;;;;;;;;;23.80;31.98;100707.00;5095682;28;19986;-70
2022/07/20 00:45:15;;;;;;;;;;;;;;;23.79;32.06;100706.19;5096899;28;19920;-70
2022/07/20 00:47:40;;;;;;;;;;;;;;;23.78;32.11;100704.56;5097059;28;20410;-70
2022/07/20 00:50:06;;;;;;;;;;;;;;;23.78;31.99;100701.84;5096663;28;19939;-70
2022/07/20 00:52:32;;;;;;;;;;;;;;;23.80;32.15;100696.91;5097104;28;19943;-70
2022/07/20 00:54:57;;;;;;;;;;;;;;;23.78;31.91;100696.38;5096570;28;20412;-71
2022/07/20 00:57:23;;;;;;;;;;;;;;;23.79;32.04;100697.19;5096780;28;19916;-71
2022/07/20 00:59:48;;;;;;;;;;;;;;;23.78;31.91;100701.00;5077017;28;19995;-71
2022/07/20 01:02:13;;;;;;;;;;;;;;;23.77;32.34;100705.63;5076441;28;19916;-71
2022/07/20 01:04:39;;;;;;;;;;;;;;;23.79;32.20;100716.28;5076182;28;20339;-71
2022/07/20 01:07:04;;;;;;;;;;;;;;;23.78;32.18;100717.38;5074861;28;19916;-71
2022/07/20 01:09:29;;;;;;;;;;;;;;;23.77;32.27;100713.81;5076120;28;19990;-71
2022/07/20 01:11:54;;;;;;;;;;;;;;;23.78;32.24;100717.38;5076199;28;19924;-70
2022/07/20 01:14:20;;;;;;;;;;;;;;;23.77;32.17;100719.28;5076245;28;20235;-71
2022/07/20 01:16:45;;;;;;;;;;;;;;;23.78;32.16;100720.09;5076095;28;19916;-71
2022/07/20 01:19:10;;;;;;;;;;;;;;;23.77;32.11;100723.94;5075470;28;19971;-71
2022/07/20 01:21:40;;;;;;;;;;;;;;;23.77;32.02;100727.47;5075654;28;19917;-72
2022/07/20 01:24:07;;;;;;;;;;;;;;;23.77;32.23;100724.75;5075515;28;19956;-72
2022/07/20 01:26:32;;;;;;;;;;;;;;;23.77;32.25;100740.31;5075621;28;19951;-72
2022/07/20 01:28:59;;;;;;;;;;;;;;;23.76;31.99;100739.47;5076110;28;19971;-72
2022/07/20 01:31:24;;;;;;;;;;;;;;;23.75;32.18;100739.72;5075816;28;19916;-72
2022/07/20 01:33:49;;;;;;;;;;;;;;;23.75;32.13;100739.72;5075505;28;19917;-71
2022/07/20 01:36:15;;;;;;;;;;;;;;;23.75;31.98;100737.00;5075768;28;19916;-71
2022/07/20 01:38:40;;;;;;;;;;;;;;;23.76;32.14;100738.66;5075747;28;20416;-71
2022/07/20 01:41:05;;;;;;;;;;;;;;;23.74;32.15;100736.19;5075340;28;19916;-71
2022/07/20 01:43:30;;;;;;;;;;;;;;;23.75;32.20;100737.84;5075282;28;19943;-71
2022/07/20 01:45:56;;;;;;;;;;;;;;;23.75;32.32;100735.09;5075491;28;20015;-71
2022/07/20 01:48:21;;;;;;;;;;;;;;;23.75;32.23;100735.09;5075413;28;20359;-71
2022/07/20 01:50:46;;;;;;;;;;;;;;;23.75;32.17;100737.00;5075451;28;20388;-71
2022/07/20 01:53:12;;;;;;;;;;;;;;;23.73;32.39;100734.56;5075023;28;20011;-71
2022/07/20 01:55:37;;;;;;;;;;;;;;;23.74;32.26;100724.47;5074032;28;19925;-71
2022/07/20 01:58:02;;;;;;;;;;;;;;;23.76;32.26;100730.47;5077415;28;19975;-71
2022/07/20 02:00:28;;;;;;;;;;;;;;;23.75;32.37;100728.81;5095474;28;19991;-71
2022/07/20 02:02:53;;;;;;;;;;;;;;;23.74;32.14;100725.28;5095405;28;20371;-71
2022/07/20 02:05:18;;;;;;;;;;;;;;;23.74;32.33;100724.47;5095537;28;20358;-70
2022/07/20 02:07:44;;;;;;;;;;;;;;;23.74;32.33;100719.81;5095569;28;19927;-70
2022/07/20 02:10:09;;;;;;;;;;;;;;;23.75;32.45;100723.34;5095186;28;20375;-70
2022/07/20 02:12:35;;;;;;;;;;;;;;;23.75;32.52;100716.00;5095356;28;19917;-70
2022/07/20 02:15:00;;;;;;;;;;;;;;;23.74;32.42;100708.91;5095896;28;19916;-70
2022/07/20 02:17:25;;;;;;;;;;;;;;;23.74;32.24;100713.53;5095599;28;20363;-70
2022/07/20 02:19:51;;;;;;;;;;;;;;;23.74;32.41;100719.81;5095680;28;20389;-70
2022/07/20 02:22:16;;;;;;;;;;;;;;;23.75;32.47;100713.28;5095583;28;20370;-70
2022/07/20 02:24:41;;;;;;;;;;;;;;;23.75;32.58;100713.28;5095001;28;19924;-70
2022/07/20 02:27:06;;;;;;;;;;;;;;;23.73;32.47;100710.00;5095401;28;20423;-70
2022/07/20 02:29:32;;;;;;;;;;;;;;;23.73;32.48;100707.28;5095286;28;19924;-70
2022/07/20 02:31:57;;;;;;;;;;;;;;;23.73;32.46;100720.91;5095320;28;19966;-70
2022/07/20 02:34:22;;;;;;;;;;;;;;;23.75;32.55;100713.28;5095689;28;20282;-70
2022/07/20 02:36:47;;;;;;;;;;;;;;;23.74;32.55;100713.53;5096488;28;19935;-70
2022/07/20 02:39:13;;;;;;;;;;;;;;;23.73;32.56;100712.72;5097272;28;20382;-70
2022/07/20 02:41:38;;;;;;;;;;;;;;;23.73;32.60;100722.81;5096982;28;19916;-70
2022/07/20 02:44:03;;;;;;;;;;;;;;;23.73;32.45;100723.66;5094738;28;19916;-70
2022/07/20 02:46:29;;;;;;;;;;;;;;;23.74;32.48;100728.00;5094345;28;19916;-70
2022/07/20 02:48:54;;;;;;;;;;;;;;;23.73;32.74;100729.09;5094651;28;19947;-70
2022/07/20 02:51:19;;;;;;;;;;;;;;;23.74;32.69;100733.47;5094498;28;19977;-70
2022/07/20 02:53:44;;;;;;;;;;;;;;;23.72;32.87;100738.38;5094600;28;19916;-71
2022/07/20 02:56:10;;;;;;;;;;;;;;;23.73;32.69;100748.22;5094338;28;19916;-70
2022/07/20 02:58:35;;;;;;;;;;;;;;;23.74;32.63;100751.75;5087984;28;19917;-70
2022/07/20 03:01:00;;;;;;;;;;;;;;;23.73;32.84;100750.09;5074168;28;19995;-70
2022/07/20 03:03:25;;;;;;;;;;;;;;;23.73;32.66;100745.47;5074101;28;20363;-70
2022/07/20 03:05:51;;;;;;;;;;;;;;;23.73;32.63;100745.47;5073959;28;19917;-71
2022/07/20 03:08:16;;;;;;;;;;;;;;;23.75;32.61;100745.19;5073823;28;20367;-70
2022/07/20 03:10:41;;;;;;;;;;;;;;;23.75;32.76;100737.84;5074029;28;19920;-70
2022/07/20 03:13:06;;;;;;;;;;;;;;;23.78;32.97;100747.38;5073707;28;20359;-71
2022/07/20 03:15:32;;;;;;;;;;;;;;;23.79;32.70;100744.38;5074000;28;19992;-71
2022/07/20 03:17:57;;;;;;;;;;;;;;;23.80;32.92;100746.03;5073523;28;20267;-71
2022/07/20 03:20:24;;;;;;;;;;;;;;;23.80;32.85;100746.03;5074607;28;19917;-71
2022/07/20 03:22:49;;;;;;;;;;;;;;;23.79;32.91;100741.66;5073885;28;19916;-71
2022/07/20 03:25:15;;;;;;;;;;;;;;;23.81;32.87;100747.69;5071919;28;19932;-71
2022/07/20 03:27:40;;;;;;;;;;;;;;;23.81;33.00;100742.25;5073852;28;19916;-71
2022/07/20 03:30:06;;;;;;;;;;;;;;;23.83;32.78;100739.25;5073821;28;20235;-71
2022/07/20 03:32:31;;;;;;;;;;;;;;;23.82;32.91;100743.09;5073788;28;19920;-71
2022/07/20 03:34:56;;;;;;;;;;;;;;;23.85;32.91;100747.16;5073514;28;20259;-71
2022/07/20 03:37:21;;;;;;;;;;;;;;;23.85;32.97;100742.53;5073400;28;19965;-70
2022/07/20 03:39:47;;;;;;;;;;;;;;;23.88;32.82;100741.19;5073500;28;19920;-70
2022/07/20 03:42:12;;;;;;;;;;;;;;;23.88;33.13;100743.91;5076566;28;19940;-70
2022/07/20 03:44:37;;;;;;;;;;;;;;;23.88;32.77;100741.19;5077419;28;19924;-70
2022/07/20 03:47:02;;;;;;;;;;;;;;;23.97;32.73;100736.84;5078280;28;20351;-70
2022/07/20 03:49:30;;;;;;;;;;;;;;;23.95;32.81;100739.00;5077653;28;19934;-70
2022/07/20 03:51:56;;;;;;;;;;;;;;;23.95;32.86;100731.63;5077950;28;19916;-70
2022/07/20 03:54:21;;;;;;;;;;;;;;;24.01;32.71;100746.16;5077620;28;20320;-70
2022/07/20 03:56:46;;;;;;;;;;;;;;;23.99;32.95;100748.28;5077547;28;19973;-70
2022/07/20 03:59:12;;;;;;;;;;;;;;;24.01;32.85;100751.59;5088058;28;19916;-70
2022/07/20 04:01:37;;;;;;;;;;;;;;;24.00;33.12;100752.69;5097695;28;20278;-71
2022/07/20 04:04:02;;;;;;;;;;;;;;;24.00;32.96;100763.59;5097480;28;19969;-71
2022/07/20 04:06:28;;;;;;;;;;;;;;;23.94;32.90;100757.31;5098016;28;19920;-71
2022/07/20 04:08:53;;;;;;;;;;;;;;;24.00;32.98;100766.31;5097405;28;20362;-71
2022/07/20 04:11:18;;;;;;;;;;;;;;;24.02;32.73;100766.88;5097510;28;19917;-71
2022/07/20 04:13:43;;;;;;;;;;;;;;;23.98;33.03;100769.31;5097625;28;20366;-71
2022/07/20 04:16:09;;;;;;;;;;;;;;;24.05;32.76;100774.53;5097574;28;19923;-71
2022/07/20 04:18:34;;;;;;;;;;;;;;;24.01;32.74;100776.16;5097401;28;20024;-71
2022/07/20 04:20:59;;;;;;;;;;;;;;;24.03;32.88;100770.44;5097003;28;19920;-71
2022/07/20 04:23:24;;;;;;;;;;;;;;;24.10;32.84;100771.00;5097158;28;20012;-71
2022/07/20 04:25:50;;;;;;;;;;;;;;;24.09;32.57;100778.34;5096741;28;19920;-71
2022/07/20 04:28:16;;;;;;;;;;;;;;;24.14;32.64;100775.63;5096071;28;19942;-71
2022/07/20 04:30:41;;;;;;;;;;;;;;;24.12;32.69;100772.38;5097230;28;20359;-71
2022/07/20 04:33:06;;;;;;;;;;;;;;;24.08;32.98;100779.47;5096944;28;19959;-71
2022/07/20 04:35:32;;;;;;;;;;;;;;;24.14;32.71;100778.38;5097084;28;19995;-71
2022/07/20 04:37:57;;;;;;;;;;;;;;;24.18;32.63;100784.97;5096785;28;20010;-71
2022/07/20 04:40:22;;;;;;;;;;;;;;;24.15;32.67;100777.28;5097009;28;19920;-71
2022/07/20 04:42:47;;;;;;;;;;;;;;;24.15;32.76;100780.03;5096954;28;20381;-71
2022/07/20 04:45:12;;;;;;;;;;;;;;;24.15;32.76;100779.22;5096882;28;19916;-72
2022/07/20 04:47:38;;;;;;;;;;;;;;;24.16;32.85;100784.41;5096858;28;19916;-71
2022/07/20 04:50:03;;;;;;;;;;;;;;;24.18;32.50;100782.22;5096749;28;20397;-71
2022/07/20 04:52:28;;;;;;;;;;;;;;;24.17;32.61;100783.31;5096312;28;19924;-72
2022/07/20 04:54:54;;;;;;;;;;;;;;;24.22;32.71;100781.69;5096584;28;19923;-72
2022/07/20 04:57:19;;;;;;;;;;;;;;;24.23;32.48;100792.31;5096531;28;19949;-72
2022/07/20 04:59:44;;;;;;;;;;;;;;;24.23;32.49;100789.59;5083585;28;19965;-71
2022/07/20 05:02:10;;;;;;;;;;;;;;;24.24;32.26;100787.69;5076696;28;19920;-71
2022/07/20 05:04:35;;;;;;;;;;;;;;;24.20;32.36;100784.69;5076083;28;20366;-71
2022/07/20 05:07:00;;;;;;;;;;;;;;;24.24;32.66;100774.03;5076220;28;20419;-72
2022/07/20 05:09:26;;;;;;;;;;;;;;;24.16;32.72;100776.22;5076435;28;20357;-72
2022/07/20 05:11:51;;;;;;;;;;;;;;;24.16;32.78;100781.69;5074951;28;19916;-71
2022/07/20 05:14:16;;;;;;;;;;;;;;;24.19;32.70;100764.72;5075727;28;19920;-71
2022/07/20 05:16:42;;;;;;;;;;;;;;;24.26;32.41;100763.66;5076101;28;19917;-72
2022/07/20 05:19:08;;;;;;;;;;;;;;;24.26;32.54;100766.41;5076038;28;20354;-72
2022/07/20 05:21:34;;;;;;;;;;;;;;;24.23;32.88;100764.19;5075684;28;19917;-72
2022/07/20 05:23:59;;;;;;;;;;;;;;;24.23;32.81;100758.75;5075604;28;19939;-71
2022/07/20 05:26:24;;;;;;;;;;;;;;;24.18;32.75;100768.56;5075868;28;20317;-72
2022/07/20 05:28:50;;;;;;;;;;;;;;;24.15;32.88;100773.75;5074491;28;20314;-71
2022/07/20 05:31:15;;;;;;;;;;;;;;;24.16;32.83;100769.91;5076074;28;19952;-72
2022/07/20 05:33:40;;;;;;;;;;;;;;;24.15;32.88;100768.28;5075922;28;19916;-71
2022/07/20 05:36:06;;;;;;;;;;;;;;;24.17;32.75;100769.66;5075721;28;20002;-71
2022/07/20 05:38:31;;;;;;;;;;;;;;;24.15;32.63;100771.84;5075708;28;19946;-71
2022/07/20 05:40:56;;;;;;;;;;;;;;;24.26;32.64;100766.41;5075461;28;19917;-71
2022/07/20 05:43:22;;;;;;;;;;;;;;;24.21;32.76;100771.84;5075911;28;19923;-71
2022/07/20 05:45:50;;;;;;;;;;;;;;;24.17;32.79;100783.31;5075170;28;20019;-71
2022/07/20 05:48:16;;;;;;;;;;;;;;;24.19;32.63;100783.84;5075894;28;19917;-71
2022/07/20 05:50:41;;;;;;;;;;;;;;;24.30;32.58;100792.06;5075066;28;19924;-71
2022/07/20 05:53:07;;;;;;;;;;;;;;;24.26;32.68;100790.97;5075679;28;19923;-71
2022/07/20 05:55:32;;;;;;;;;;;;;;;24.30;32.59;100797.53;5075485;28;20286;-71
2022/07/20 05:57:58;;;;;;;;;;;;;;;24.31;32.38;100799.19;5075189;28;20283;-70
2022/07/20 06:00:23;;;;;;;;;;;;;;;24.40;32.46;100797.56;5093439;28;19916;-71
2022/07/20 06:02:49;;;;;;;;;;;;;;;24.33;32.42;100811.47;5095923;28;19995;-71
2022/07/20 06:05:14;;;;;;;;;;;;;;;24.32;32.37;100811.75;5095033;28;19916;-71
2022/07/20 06:07:39;;;;;;;;;;;;;;;24.33;32.15;100813.38;5099478;28;19916;-71
2022/07/20 06:10:05;;;;;;;;;;;;;;;24.35;32.15;100816.66;5110343;28;19916;-71
2022/07/20 06:12:30;;;;;;;;;;;;;;;24.30;32.39;100828.41;5109056;28;19955;-70
2022/07/20 06:14:55;;;;;;;;;;;;;;;24.32;32.64;100822.69;5108346;28;19916;-71
2022/07/20 06:17:20;;;;;;;;;;;;;;;24.35;32.19;100822.97;5105532;28;19926;-70
2022/07/20 06:19:46;;;;;;;;;;;;;;;24.32;32.40;100815.31;5108049;28;19922;-71
2022/07/20 06:22:11;;;;;;;;;;;;;;;24.32;32.41;100823.50;5105427;28;19916;-70
2022/07/20 06:24:36;;;;;;;;;;;;;;;24.38;32.27;100821.59;5096654;28;19931;-72
2022/07/20 06:27:02;;;;;;;;;;;;;;;24.35;32.44;100822.13;5095904;28;19996;-72
2022/07/20 06:29:27;;;;;;;;;;;;;;;24.42;32.38;100825.41;5095396;28;20378;-71
2022/07/20 06:31:52;;;;;;;;;;;;;;;24.43;32.17;100824.34;5095461;28;19924;-71
2022/07/20 06:34:18;;;;;;;;;;;;;;;24.46;32.08;100823.81;5094728;28;19955;-71
2022/07/20 06:36:45;;;;;;;;;;;;;;;24.42;32.32;100825.41;5095001;28;20422;-72
2022/07/20 06:39:10;;;;;;;;;;;;;;;24.46;32.07;100815.59;5094910;28;19962;-72
2022/07/20 06:41:36;;;;;;;;;;;;;;;24.47;32.03;100825.44;5095089;28;19928;-72
2022/07/20 06:44:01;;;;;;;;;;;;;;;24.46;32.16;100812.88;5094102;28;19961;-72
2022/07/20 06:46:26;;;;;;;;;;;;;;;24.45;32.13;100819.41;5095046;28;20382;-72
2022/07/20 06:48:52;;;;;;;;;;;;;;;24.46;32.15;100821.06;5094168;28;19998;-73
2022/07/20 06:51:17;;;;;;;;;;;;;;;24.49;32.18;100812.34;5094636;28;19924;-72
2022/07/20 06:53:42;;;;;;;;;;;;;;;24.49;32.14;100820.53;5094086;28;19962;-72
2022/07/20 06:56:07;;;;;;;;;;;;;;;24.52;32.15;100814.50;5094804;28;20007;-73
2022/07/20 06:58:33;;;;;;;;;;;;;;;24.51;32.23;100818.34;5092316;28;19916;-73
2022/07/20 07:00:58;;;;;;;;;;;;;;;24.57;31.94;100807.47;5074009;28;20015;-73
2022/07/20 07:03:23;;;;;;;;;;;;;;;24.57;31.90;100812.91;5074255;28;19917;-73
2022/07/20 07:05:48;;;;;;;;;;;;;;;24.55;31.83;100808.53;5073609;28;20019;-72
2022/07/20 07:08:14;;;;;;;;;;;;;;;24.53;31.87;100802.50;5073444;28;19921;-72
2022/07/20 07:10:39;;;;;;;;;;;;;;;24.59;31.84;100810.72;5074102;28;19916;-73
2022/07/20 07:13:04;;;;;;;;;;;;;;;24.57;31.75;100802.00;5074355;28;20390;-72
2022/07/20 07:15:30;;;;;;;;;;;;;;;24.64;31.74;100810.75;5071852;28;20378;-72
2022/07/20 07:17:55;;;;;;;;;;;;;;;24.61;31.72;100809.38;5073811;28;19916;-72
2022/07/20 07:20:21;;;;;;;;;;;;;;;24.58;31.96;100814.53;5073459;28;19917;-72
2022/07/20 07:22:46;;;;;;;;;;;;;;;24.58;32.05;100820.84;5073759;28;19917;-72
2022/07/20 07:25:11;;;;;;;;;;;;;;;24.63;31.83;100820.03;5073350;28;19932;-72
2022/07/20 07:27:39;;;;;;;;;;;;;;;24.61;31.90;100814.00;5072664;28;20225;-72
2022/07/20 07:30:04;;;;;;;;;;;;;;;24.62;31.52;100819.22;5073352;28;20442;-72
2022/07/20 07:32:30;;;;;;;;;;;;;;;24.61;31.52;100823.06;5073678;28;19912;-72
2022/07/20 07:34:55;;;;;;;;;;;;;;;24.62;31.74;100818.41;5073346;28;20359;-72
2022/07/20 07:37:20;;;;;;;;;;;;;;;24.58;31.46;100809.91;5073419;28;19919;-72
2022/07/20 07:39:45;;;;;;;;;;;;;;;24.60;31.45;100829.59;5073752;28;19917;-72
2022/07/20 07:42:11;;;;;;;;;;;;;;;24.61;31.35;100819.47;5073266;28;19975;-72
2022/07/20 07:44:36;;;;;;;;;;;;;;;24.63;31.41;100820.03;5074259;28;19917;-72
2022/07/20 07:47:01;;;;;;;;;;;;;;;24.69;31.24;100827.16;5072520;28;19917;-72
2022/07/20 07:49:27;;;;;;;;;;;;;;;24.65;31.13;100820.59;5074124;28;20438;-72
2022/07/20 07:51:52;;;;;;;;;;;;;;;24.69;31.11;100810.75;5073685;28;20015;-72
2022/07/20 07:54:17;;;;;;;;;;;;;;;24.72;30.99;100810.22;5073427;28;19921;-72
2022/07/20 07:56:42;;;;;;;;;;;;;;;24.72;31.10;100816.50;5071750;28;20406;-72
2022/07/20 07:59:08;;;;;;;;;;;;;;;24.71;31.16;100812.09;5079540;28;19923;-72
2022/07/20 08:01:34;;;;;;;;;;;;;;;24.68;31.18;100817.28;5093695;28;20282;-72
2022/07/20 08:04:00;;;;;;;;;;;;;;;24.69;31.06;100810.75;5093581;28;19916;-72
2022/07/20 08:06:25;;;;;;;;;;;;;;;24.62;31.02;100810.19;5094090;28;19927;-72
2022/07/20 08:08:50;;;;;;;;;;;;;;;24.63;30.98;100806.34;5092046;28;19924;-72
2022/07/20 08:11:17;;;;;;;;;;;;;;;24.67;30.95;100812.94;5093730;28;19922;-72
2022/07/20 08:13:42;;;;;;;;;;;;;;;24.69;30.77;100810.75;5093603;28;20004;-72
2022/07/20 08:16:07;;;;;;;;;;;;;;;24.67;30.88;100810.22;5093383;28;20350;-72
2022/07/20 08:18:32;;;;;;;;;;;;;;;24.69;30.98;100821.69;5093469;28;20398;-72
2022/07/20 08:20:58;;;;;;;;;;;;;;;24.72;30.69;100815.69;5094053;28;19923;-72
2022/07/20 08:23:23;;;;;;;;;;;;;;;24.73;30.86;100822.75;5092025;28;19916;-72
2022/07/20 08:25:48;;;;;;;;;;;;;;;24.73;30.97;100812.69;5093314;28;20290;-72
2022/07/20 08:28:18;;;;;;;;;;;;;;;24.76;30.89;100811.28;5094720;28;19963;-72
2022/07/20 08:30:44;;;;;;;;;;;;;;;24.75;30.88;100809.69;5096875;28;19916;-72
2022/07/20 08:33:09;;;;;;;;;;;;;;;24.76;30.75;100811.28;5095669;28;20385;-72
2022/07/20 08:35:34;;;;;;;;;;;;;;;24.77;30.63;100818.41;5104153;28;19916;-72
2022/07/20 08:38:00;;;;;;;;;;;;;;;24.74;30.71;100813.50;5096462;28;19924;-72
2022/07/20 08:40:25;;;;;;;;;;;;;;;24.76;30.82;100827.69;5096951;28;19970;-72
2022/07/20 08:42:51;;;;;;;;;;;;;;;24.79;30.63;100823.59;5096844;28;20293;-72
2022/07/20 08:45:16;;;;;;;;;;;;;;;24.73;30.73;100822.75;5096978;28;19916;-72
2022/07/20 08:47:41;;;;;;;;;;;;;;;24.78;30.62;100820.03;5096720;28;19928;-72
2022/07/20 08:50:07;;;;;;;;;;;;;;;24.83;30.58;100811.03;5095037;28;20378;-72
2022/07/20 08:52:32;;;;;;;;;;;;;;;24.82;30.86;100814.84;5096959;28;19916;-72
2022/07/20 08:54:57;;;;;;;;;;;;;;;24.83;30.76;100809.09;5096396;28;20266;-72
2022/07/20 08:57:22;;;;;;;;;;;;;;;24.81;30.67;100807.75;5096738;28;19916;-72
2022/07/20 08:59:48;;;;;;;;;;;;;;;24.81;30.68;100803.09;5085229;28;19921;-72
2022/07/20 09:02:13;;;;;;;;;;;;;;;24.83;30.74;100805.56;5075830;28;19990;-72
2022/07/20 09:04:55;;;;;;;;;;;;;;;24.85;30.59;100817.88;5076199;28;19916;-72
2022/07/20 09:07:35;;;;;;;;;;;;;;;24.75;30.63;100815.13;5076044;28;20013;-73
2022/07/20 09:10:00;;;;;;;;;;;;;;;24.78;30.58;100814.56;5075573;28;19924;-72
2022/07/20 09:12:26;;;;;;;;;;;;;;;24.79;30.61;100809.94;5075951;28;19916;-72
2022/07/20 09:14:52;;;;;;;;;;;;;;;24.81;30.60;100811.28;5075891;28;20255;-72
2022/07/20 09:17:18;;;;;;;;;;;;;;;24.85;30.62;100804.22;5075965;28;19920;-72
2022/07/20 09:19:54;;;;;;;;;;;;;;;24.81;30.80;100810.50;5074826;28;19924;-72
2022/07/20 09:22:32;;;;;;;;;;;;;;;24.86;30.78;100816.78;5075794;28;19967;-72
2022/07/20 09:25:06;;;;;;;;;;;;;;;24.86;30.71;100816.78;5075356;28;19924;-72
2022/07/20 09:27:35;;;;;;;;;;;;;;;24.84;30.62;100813.50;5075502;28;20267;-72
2022/07/20 09:30:04;;;;;;;;;;;;;;;24.75;30.86;100806.94;5075323;28;19923;-71
2022/07/20 09:32:30;;;;;;;;;;;;;;;24.74;30.89;100808.84;5075526;28;19916;-72
2022/07/20 09:35:04;;;;;;;;;;;;;;;24.78;30.81;100809.09;5075597;28;20328;-72
2022/07/20 09:37:37;;;;;;;;;;;;;;;24.80;30.69;100817.88;5075444;28;19988;-72
2022/07/20 09:40:03;;;;;;;;;;;;;;;24.83;31.02;100809.09;5075048;28;19916;-72
2022/07/20 09:42:35;;;;;;;;;;;;;;;24.78;30.76;100809.09;5074933;28;20267;-72
2022/07/20 09:45:16;;;;;;;;;;;;;;;24.81;30.75;100805.84;5074934;28;19939;-72
2022/07/20 09:47:46;;;;;;;;;;;;;;;24.85;30.71;100811.56;5073766;28;19925;-72
2022/07/20 09:50:30;;;;;;;;;;;;;;;24.84;30.65;100818.97;5073816;28;19959;-72
2022/07/20 09:52:56;;;;;;;;;;;;;;;24.80;30.61;100817.03;5074904;28;20016;-72
2022/07/20 09:55:22;;;;;;;;;;;;;;;24.83;30.87;100819.22;5075398;28;20275;-72
2022/07/20 09:57:47;;;;;;;;;;;;;;;24.93;30.69;100820.03;5075097;28;19917;-72
2022/07/20 10:00:13;;;;;;;;;;;;;;;24.85;30.51;100817.03;5088396;28;19941;-72
2022/07/20 10:02:38;;;;;;;;;;;;;;;24.83;30.90;100817.31;5095105;28;19916;-72
2022/07/20 10:05:04;;;;;;;;;;;;;;;25.05;30.65;100827.97;5095427;28;20284;-72
2022/07/20 10:07:29;;;;;;;;;;;;;;;25.08;30.38;100823.88;5100669;28;20285;-71
2022/07/20 10:09:54;;;;;;;;;;;;;;;25.02;30.25;100814.03;5096694;28;19940;-71
2022/07/20 10:12:20;;;;;;;;;;;;;;;24.98;30.35;100812.97;5093446;28;20315;-71
2022/07/20 10:14:45;;;;;;;;;;;;;;;24.83;30.33;100814.56;5094897;28;19923;-72
2022/07/20 10:17:10;;;;;;;;;;;;;;;24.91;30.33;100814.03;5094672;28;20390;-72
2022/07/20 10:19:48;;;;;;;;;;;;;;;24.97;30.17;100822.25;5095054;28;19998;-72
2022/07/20 10:22:13;;;;;;;;;;;;;;;25.13;30.31;100815.69;5093976;28;19966;-71
2022/07/20 10:24:39;;;;;;;;;;;;;;;25.15;30.14;100810.75;5094947;28;20247;-72
2022/07/20 10:27:16;;;;;;;;;;;;;;;24.96;30.57;100824.16;5094964;28;20403;-72
2022/07/20 10:29:43;;;;;;;;;;;;;;;24.98;30.37;100821.16;5094671;28;19917;-72
2022/07/20 10:32:11;;;;;;;;;;;;;;;24.92;30.55;100818.41;5094300;28;19967;-72
2022/07/20 10:34:37;;;;;;;;;;;;;;;24.96;30.63;100824.16;5094492;28;19946;-72
2022/07/20 10:37:22;;;;;;;;;;;;;;;25.02;30.33;100814.84;5095111;28;20316;-73
2022/07/20 10:39:47;;;;;;;;;;;;;;;24.92;30.31;100814.84;5094444;28;19923;-72
2022/07/20 10:42:21;;;;;;;;;;;;;;;24.94;30.71;100818.16;5094429;28;19917;-73
2022/07/20 10:44:47;;;;;;;;;;;;;;;24.92;30.56;100810.22;5094121;28;19954;-72
2022/07/20 10:47:31;;;;;;;;;;;;;;;24.87;30.71;100812.13;5094290;28;19947;-72
2022/07/20 10:50:00;;;;;;;;;;;;;;;24.98;30.54;100821.16;5094373;28;19916;-72
2022/07/20 10:52:26;;;;;;;;;;;;;;;24.96;30.58;100820.59;5094198;28;20370;-72
2022/07/20 10:54:52;;;;;;;;;;;;;;;24.98;30.47;100823.88;5094224;28;19936;-73
2022/07/20 10:57:17;;;;;;;;;;;;;;;24.93;30.61;100828.25;5094205;28;20439;-72
2022/07/20 10:59:42;;;;;;;;;;;;;;;25.02;30.37;100827.72;5085420;28;19916;-72
2022/07/20 11:02:07;;;;;;;;;;;;;;;25.06;30.38;100818.69;5073005;28;19920;-72
2022/07/20 11:04:35;;;;;;;;;;;;;;;25.09;30.45;100812.69;5072603;28;20338;-72
2022/07/20 11:07:01;;;;;;;;;;;;;;;25.12;30.43;100814.03;5072564;28;19924;-72
2022/07/20 11:09:30;;;;;;;;;;;;;;;25.08;30.13;100796.53;5073945;28;20379;-72
2022/07/20 11:11:55;;;;;;;;;;;;;;;25.09;30.38;100800.91;5073785;28;19917;-72
2022/07/20 11:14:20;;;;;;;;;;;;;;;25.12;30.24;100803.09;5073854;28;20320;-72
2022/07/20 11:16:46;;;;;;;;;;;;;;;25.14;30.28;100800.91;5073469;28;19920;-72
2022/07/20 11:19:11;;;;;;;;;;;;;;;25.12;30.13;100797.63;5072462;28;19920;-72
2022/07/20 11:21:40;;;;;;;;;;;;;;;25.14;30.28;100805.56;5073835;28;19921;-72
2022/07/20 11:24:22;;;;;;;;;;;;;;;25.15;30.36;100799.81;5073288;28;19935;-72
2022/07/20 11:26:47;;;;;;;;;;;;;;;25.03;30.33;100807.47;5074067;28;19990;-72
2022/07/20 11:29:14;;;;;;;;;;;;;;;25.10;30.01;100811.56;5073684;28;19979;-72
2022/07/20 11:31:39;;;;;;;;;;;;;;;25.14;30.46;100808.28;5073820;28;19916;-72
2022/07/20 11:34:04;;;;;;;;;;;;;;;25.08;30.32;100802.00;5073547;28;19917;-72
2022/07/20 11:36:30;;;;;;;;;;;;;;;25.06;30.32;100801.44;5073352;28;20281;-72
2022/07/20 11:38:59;;;;;;;;;;;;;;;25.12;30.38;100797.63;5073779;28;19923;-72
2022/07/20 11:41:31;;;;;;;;;;;;;;;25.02;30.12;100800.38;5073381;28;19916;-72
2022/07/20 11:43:56;;;;;;;;;;;;;;;25.07;30.20;100790.22;5073717;28;19920;-72
2022/07/20 11:46:22;;;;;;;;;;;;;;;24.99;30.29;100788.06;5073272;28;20011;-72
2022/07/20 11:48:51;;;;;;;;;;;;;;;25.00;30.55;100791.63;5073359;28;19917;-72
2022/07/20 11:51:17;;;;;;;;;;;;;;;25.12;30.28;100798.44;5073379;28;19917;-72
2022/07/20 11:53:42;;;;;;;;;;;;;;;25.09;30.45;100792.69;5073223;28;19924;-72
2022/07/20 11:56:16;;;;;;;;;;;;;;;25.06;30.11;100788.63;5073231;28;20042;-72
2022/07/20 11:58:42;;;;;;;;;;;;;;;25.07;30.36;100792.16;5073050;28;19916;-72
2022/07/20 12:01:08;;;;;;;;;;;;;;;25.05;30.40;100786.97;5092690;28;19985;-72
2022/07/20 12:03:34;;;;;;;;;;;;;;;25.09;29.64;100792.69;5097255;28;19969;-72
2022/07/20 12:06:00;;;;;;;;;;;;;;;25.06;30.27;100795.97;5096215;28;19916;-72
2022/07/20 12:08:26;;;;;;;;;;;;;;;25.01;30.67;100795.97;5097346;28;20324;-73
2022/07/20 12:10:51;;;;;;;;;;;;;;;25.12;29.89;100786.69;5096789;28;19922;-73
2022/07/20 12:13:17;;;;;;;;;;;;;;;25.06;30.38;100788.63;5095810;28;19920;-73
2022/07/20 12:15:52;;;;;;;;;;;;;;;25.12;29.91;100789.41;5097576;28;19951;-72
2022/07/20 12:18:37;;;;;;;;;;;;;;;25.16;30.25;100787.75;5097352;28;20251;-72
2022/07/20 12:21:03;;;;;;;;;;;;;;;25.07;30.37;100784.75;5096694;28;19991;-72
2022/07/20 12:23:28;;;;;;;;;;;;;;;25.04;30.40;100784.50;5097012;28;19927;-72
2022/07/20 12:25:54;;;;;;;;;;;;;;;25.17;29.98;100783.94;5096877;28;20438;-72
2022/07/20 12:28:29;;;;;;;;;;;;;;;25.12;30.38;100779.28;5096946;28;20277;-72
2022/07/20 12:31:07;;;;;;;;;;;;;;;25.12;30.16;100767.53;5097095;28;19916;-73
2022/07/20 12:33:32;;;;;;;;;;;;;;;25.10;30.08;100772.47;5095784;28;19951;-73